Time;durP1;ratioP1;P1;durP2;ratioP2;P2;SDS_P1;SDS_P2;PMS_P1;PMS_P2;Temp;Humidity;BMP_temperature;BMP_pressure;BME280_temperature;BME280_humidity;BME280_pressure;Samples;Min_cycle;Max_cycle;Signal;HPM_P1;HPM_P2
2023/05/06 00:01:45;;;;;;;5.43;4.93;;;17.40;99.90;;;;;;5023681;28;20184;-64
2023/05/06 00:04:10;;;;;;;6.77;4.80;;;17.40;99.90;;;;;;5024248;28;20184;-64
2023/05/06 00:06:36;;;;;;;8.87;5.70;;;17.40;99.90;;;;;;5023827;28;20408;-64
2023/05/06 00:09:02;;;;;;;6.43;5.07;;;17.30;99.90;;;;;;5021881;28;20435;-65
2023/05/06 00:11:27;;;;;;;6.27;5.67;;;17.30;99.90;;;;;;5024716;28;20222;-64
2023/05/06 00:13:53;;;;;;;7.20;5.50;;;17.30;99.90;;;;;;5022564;28;20513;-65
2023/05/06 00:16:18;;;;;;;7.00;5.13;;;17.40;99.90;;;;;;5022614;28;20189;-65
2023/05/06 00:18:44;;;;;;;7.20;5.20;;;17.30;99.90;;;;;;5020732;28;20207;-64
2023/05/06 00:21:10;;;;;;;5.83;5.20;;;17.40;99.90;;;;;;5025553;28;21251;-65
2023/05/06 00:23:35;;;;;;;8.40;4.90;;;17.30;99.90;;;;;;5023111;28;20185;-64
2023/05/06 00:26:01;;;;;;;7.10;5.80;;;17.30;99.90;;;;;;5026497;28;20815;-65
2023/05/06 00:28:26;;;;;;;7.27;6.10;;;17.30;99.90;;;;;;5026465;28;20627;-65
2023/05/06 00:30:52;;;;;;;6.33;5.67;;;17.30;99.90;;;;;;5025233;28;20231;-65
2023/05/06 00:33:17;;;;;;;7.30;4.80;;;17.30;99.90;;;;;;5024925;28;20177;-65
2023/05/06 00:35:43;;;;;;;6.00;5.33;;;17.30;99.90;;;;;;5021968;28;20183;-64
2023/05/06 00:38:12;;;;;;;6.60;5.37;;;17.20;99.90;;;;;;5016460;28;20204;-65
2023/05/06 00:40:38;;;;;;;10.23;5.47;;;17.20;99.90;;;;;;5015223;28;20235;-65
2023/05/06 00:43:04;;;;;;;7.87;6.03;;;17.40;99.90;;;;;;5026783;28;20403;-65
2023/05/06 00:45:30;;;;;;;9.13;5.90;;;17.30;99.90;;;;;;5023156;28;20463;-64
2023/05/06 00:47:56;;;;;;;8.47;5.93;;;17.30;99.90;;;;;;5023694;28;20505;-64
2023/05/06 00:50:22;;;;;;;7.43;5.70;;;17.30;99.90;;;;;;5026062;28;20231;-64
2023/05/06 00:52:48;;;;;;;8.30;5.80;;;17.20;99.90;;;;;;5025215;28;20960;-64
2023/05/06 00:55:15;;;;;;;6.07;5.37;;;17.30;99.90;;;;;;5022528;28;20769;-64
2023/05/06 00:57:41;;;;;;;7.03;5.90;;;17.20;99.90;;;;;;5023777;28;20490;-65
2023/05/06 01:00:07;;;;;;;7.00;5.57;;;17.20;99.90;;;;;;5024762;28;20971;-64
2023/05/06 01:02:33;;;;;;;10.90;6.50;;;17.10;99.90;;;;;;5023957;28;20471;-65
2023/05/06 01:04:59;;;;;;;6.33;5.70;;;17.10;99.90;;;;;;5022516;28;20430;-65
2023/05/06 01:07:41;;;;;;;7.37;6.23;;;17.10;99.90;;;;;;5026137;28;20199;-65
2023/05/06 01:10:18;;;;;;;7.37;6.73;;;17.00;99.90;;;;;;5019955;28;20439;-65
2023/05/06 01:12:56;;;;;;;6.90;6.20;;;16.90;99.90;;;;;;5023590;28;20466;-65
2023/05/06 01:15:35;;;;;;;7.10;6.40;;;16.90;99.90;;;;;;5024810;28;20834;-65
2023/05/06 01:18:07;;;;;;;7.93;6.13;;;16.90;99.90;;;;;;5019869;28;20444;-64
2023/05/06 01:20:33;;;;;;;7.20;6.10;;;16.90;99.90;;;;;;5019100;28;20408;-65
2023/05/06 01:23:00;;;;;;;8.50;6.10;;;16.90;99.90;;;;;;5023943;28;20522;-65
2023/05/06 01:25:26;;;;;;;11.07;6.60;;;16.80;99.90;;;;;;5024790;28;20650;-64
2023/05/06 01:27:51;;;;;;;8.40;6.83;;;16.80;99.90;;;;;;5024232;28;20485;-65
2023/05/06 01:30:19;;;;;;;9.43;6.30;;;16.80;99.90;;;;;;5024040;28;20169;-65
2023/05/06 01:33:09;;;;;;;7.87;6.30;;;16.70;99.90;;;;;;5022285;28;20207;-65
2023/05/06 01:35:38;;;;;;;7.13;6.10;;;16.70;99.90;;;;;;5024746;28;20482;-65
2023/05/06 01:38:22;;;;;;;7.87;6.23;;;16.60;99.90;;;;;;5024486;28;20482;-64
2023/05/06 01:40:53;;;;;;;9.50;6.73;;;16.60;99.90;;;;;;5022851;28;20415;-64
2023/05/06 01:43:19;;;;;;;8.27;7.00;;;16.60;99.90;;;;;;5021363;28;20509;-65
2023/05/06 01:45:51;;;;;;;8.07;6.87;;;16.50;99.90;;;;;;5019383;28;20432;-65
2023/05/06 01:48:23;;;;;;;13.00;7.13;;;16.60;99.90;;;;;;5020803;28;21011;-65
2023/05/06 01:50:49;;;;;;;7.10;6.40;;;16.50;99.90;;;;;;5023411;28;20427;-66
2023/05/06 01:53:14;;;;;;;10.40;7.03;;;16.50;99.90;;;;;;5023712;28;20419;-65
2023/05/06 01:55:40;;;;;;;9.93;7.47;;;16.50;99.90;;;;;;5024091;28;20422;-65
2023/05/06 01:58:06;;;;;;;7.27;6.57;;;16.60;99.90;;;;;;5019071;28;20203;-65
2023/05/06 02:00:31;;;;;;;8.20;7.30;;;16.50;99.90;;;;;;5023389;28;20290;-65
2023/05/06 02:02:57;;;;;;;9.23;8.33;;;16.50;99.90;;;;;;5020760;28;20184;-65
2023/05/06 02:05:22;;;;;;;10.00;7.63;;;16.50;99.90;;;;;;5023188;28;20181;-65
2023/05/06 02:07:48;;;;;;;8.77;7.30;;;16.60;99.90;;;;;;5020938;28;20761;-65
2023/05/06 02:10:13;;;;;;;13.53;9.40;;;16.50;99.90;;;;;;5024453;28;20212;-65
2023/05/06 02:12:39;;;;;;;12.17;8.00;;;16.50;99.90;;;;;;5022922;28;20215;-65
2023/05/06 02:15:05;;;;;;;8.80;7.77;;;16.50;99.90;;;;;;5023426;28;20177;-65
2023/05/06 02:17:34;;;;;;;8.10;7.27;;;16.50;99.90;;;;;;5022267;28;20184;-65
2023/05/06 02:20:00;;;;;;;8.10;6.80;;;16.40;99.90;;;;;;5019835;28;20422;-65
2023/05/06 02:22:25;;;;;;;7.50;6.40;;;16.40;99.90;;;;;;5023182;28;20435;-65
2023/05/06 02:24:51;;;;;;;8.90;6.63;;;16.40;99.90;;;;;;5020717;28;20238;-65
2023/05/06 02:27:16;;;;;;;9.70;7.90;;;16.40;99.90;;;;;;5023951;28;20199;-65
2023/05/06 02:29:42;;;;;;;9.13;6.73;;;16.50;99.90;;;;;;5022547;28;20211;-65
2023/05/06 02:32:07;;;;;;;9.13;6.70;;;16.50;99.90;;;;;;5020231;28;20216;-65
2023/05/06 02:34:33;;;;;;;9.00;7.60;;;16.40;99.90;;;;;;5022281;28;20173;-65
2023/05/06 02:36:58;;;;;;;9.87;7.13;;;16.30;99.90;;;;;;5020623;28;20219;-65
2023/05/06 02:39:24;;;;;;;11.30;8.07;;;16.30;99.90;;;;;;5016884;28;20216;-65
2023/05/06 02:41:49;;;;;;;10.93;7.30;;;16.30;99.90;;;;;;5023319;28;20587;-65
2023/05/06 02:44:15;;;;;;;8.57;7.50;;;16.20;99.90;;;;;;5022955;28;20555;-65
2023/05/06 02:46:42;;;;;;;8.30;6.57;;;16.20;99.90;;;;;;5021403;28;20189;-65
2023/05/06 02:49:08;;;;;;;11.50;6.70;;;16.30;99.90;;;;;;5017291;28;20204;-65
2023/05/06 02:51:33;;;;;;;7.70;6.50;;;16.30;99.90;;;;;;5022012;28;20474;-65
2023/05/06 02:53:59;;;;;;;10.27;6.47;;;16.30;99.90;;;;;;5022341;28;20256;-65
2023/05/06 02:56:24;;;;;;;7.70;6.90;;;16.20;99.90;;;;;;5023062;28;20180;-65
2023/05/06 02:58:51;;;;;;;9.10;7.10;;;16.20;99.90;;;;;;5018972;28;20197;-65
2023/05/06 03:01:16;;;;;;;8.93;6.30;;;16.20;99.90;;;;;;5023638;28;20693;-64
2023/05/06 03:03:42;;;;;;;8.23;7.53;;;16.10;99.90;;;;;;5022091;28;20474;-65
2023/05/06 03:06:07;;;;;;;14.00;7.87;;;16.00;99.90;;;;;;5022090;28;20331;-65
2023/05/06 03:08:33;;;;;;;16.07;7.50;;;16.00;99.90;;;;;;5020756;28;20201;-65
2023/05/06 03:10:59;;;;;;;12.20;7.03;;;16.00;99.90;;;;;;5021396;28;20204;-64
2023/05/06 03:13:24;;;;;;;8.63;7.73;;;16.00;99.90;;;;;;5021397;28;20243;-65
2023/05/06 03:15:52;;;;;;;8.20;7.30;;;16.00;99.90;;;;;;5023301;28;20188;-64
2023/05/06 03:18:18;;;;;;;8.40;7.50;;;16.00;99.90;;;;;;5023159;28;21013;-64
2023/05/06 03:20:43;;;;;;;8.23;7.40;;;16.10;99.90;;;;;;5020962;28;20462;-64
2023/05/06 03:23:09;;;;;;;7.33;6.63;;;16.10;99.90;;;;;;5021724;28;20264;-64
2023/05/06 03:25:35;;;;;;;7.90;7.07;;;16.00;99.90;;;;;;5023501;28;20177;-64
2023/05/06 03:28:00;;;;;;;9.00;7.23;;;16.00;99.90;;;;;;5023914;28;20614;-64
2023/05/06 03:30:26;;;;;;;8.47;6.97;;;16.00;99.90;;;;;;5024901;28;20621;-64
2023/05/06 03:32:51;;;;;;;7.87;6.60;;;16.00;99.90;;;;;;5024097;28;20224;-64
2023/05/06 03:35:17;;;;;;;10.03;7.33;;;16.00;99.90;;;;;;5027282;28;20176;-64
2023/05/06 03:37:43;;;;;;;7.53;6.83;;;16.00;99.90;;;;;;5022722;28;20189;-65
2023/05/06 03:40:08;;;;;;;7.07;5.93;;;16.00;99.90;;;;;;5024773;28;20275;-64
2023/05/06 03:42:35;;;;;;;7.40;6.40;;;16.00;99.90;;;;;;5025931;28;20288;-64
2023/05/06 03:45:01;;;;;;;8.60;7.23;;;15.90;99.90;;;;;;5026351;28;20526;-64
2023/05/06 03:47:26;;;;;;;8.07;7.27;;;16.00;99.90;;;;;;5023529;28;20254;-64
2023/05/06 03:49:52;;;;;;;8.30;7.40;;;15.90;99.90;;;;;;5021568;28;20570;-64
2023/05/06 03:52:17;;;;;;;10.80;7.50;;;15.90;99.90;;;;;;5024024;28;20210;-64
2023/05/06 03:54:43;;;;;;;13.83;8.83;;;15.80;99.90;;;;;;5022447;28;20195;-65
2023/05/06 03:57:08;;;;;;;8.90;7.10;;;15.80;99.90;;;;;;5026180;28;20177;-64
2023/05/06 03:59:34;;;;;;;8.83;7.10;;;15.80;99.90;;;;;;5026316;28;20287;-64
2023/05/06 04:01:59;;;;;;;9.80;6.40;;;15.70;99.90;;;;;;5025677;28;20200;-64
2023/05/06 04:04:26;;;;;;;7.60;6.60;;;15.70;99.90;;;;;;5022167;28;20196;-64
2023/05/06 04:06:51;;;;;;;8.17;7.37;;;15.70;99.90;;;;;;5023202;28;20605;-64
2023/05/06 04:09:17;;;;;;;8.30;6.47;;;15.70;99.90;;;;;;5025485;28;20442;-65
2023/05/06 04:11:43;;;;;;;11.27;6.60;;;15.60;99.90;;;;;;5023579;28;20208;-64
2023/05/06 04:14:08;;;;;;;11.07;7.30;;;15.70;99.90;;;;;;5027390;28;20242;-64
2023/05/06 04:16:34;;;;;;;7.50;6.70;;;15.70;99.90;;;;;;5021580;28;20181;-65
2023/05/06 04:19:00;;;;;;;7.47;6.77;;;15.70;99.90;;;;;;5024937;28;20204;-65
2023/05/06 04:21:26;;;;;;;7.23;6.50;;;15.70;99.90;;;;;;5020376;28;20277;-65
2023/05/06 04:23:51;;;;;;;10.90;6.90;;;15.70;99.90;;;;;;5025986;28;21252;-65
2023/05/06 04:26:17;;;;;;;10.40;7.20;;;15.70;99.90;;;;;;5025332;28;20191;-65
2023/05/06 04:28:42;;;;;;;9.30;6.97;;;15.70;99.90;;;;;;5023981;28;20212;-65
2023/05/06 04:31:09;;;;;;;7.63;6.70;;;15.70;99.90;;;;;;5025913;28;20208;-65
2023/05/06 04:33:34;;;;;;;8.03;7.03;;;15.70;99.90;;;;;;5024852;28;20626;-65
2023/05/06 04:36:00;;;;;;;8.70;7.07;;;15.70;99.90;;;;;;5023609;28;20569;-65
2023/05/06 04:38:29;;;;;;;10.13;7.60;;;15.60;99.90;;;;;;5023413;28;20605;-65
2023/05/06 04:40:55;;;;;;;10.30;6.57;;;15.60;99.90;;;;;;5025561;28;20259;-65
2023/05/06 04:43:21;;;;;;;8.07;6.90;;;15.70;99.90;;;;;;5023723;28;20518;-65
2023/05/06 04:45:49;;;;;;;8.77;7.13;;;15.80;99.90;;;;;;5020274;28;20477;-64
2023/05/06 04:48:18;;;;;;;10.13;8.27;;;15.80;99.90;;;;;;5019805;28;20207;-64
2023/05/06 04:50:45;;;;;;;8.30;7.37;;;15.80;99.90;;;;;;5024662;28;20451;-64
2023/05/06 04:53:12;;;;;;;9.33;8.27;;;15.90;99.90;;;;;;5023021;28;20415;-65
2023/05/06 04:55:37;;;;;;;9.43;7.37;;;16.00;99.90;;;;;;5023070;28;20439;-65
2023/05/06 04:58:03;;;;;;;9.77;8.17;;;16.00;99.90;;;;;;5023896;28;20513;-65
2023/05/06 05:00:28;;;;;;;9.30;7.80;;;16.00;99.90;;;;;;5024705;28;20176;-65
2023/05/06 05:02:54;;;;;;;11.70;7.80;;;16.00;99.90;;;;;;5024032;28;20635;-65
2023/05/06 05:05:20;;;;;;;11.20;7.63;;;16.10;99.90;;;;;;5021199;28;20203;-64
2023/05/06 05:07:45;;;;;;;8.33;7.50;;;16.10;99.90;;;;;;5025330;28;20211;-65
2023/05/06 05:10:11;;;;;;;8.87;7.90;;;16.10;99.90;;;;;;5024416;28;20691;-64
2023/05/06 05:12:36;;;;;;;8.10;7.27;;;16.10;99.90;;;;;;5020461;28;20591;-64
2023/05/06 05:15:02;;;;;;;9.03;7.60;;;16.10;99.90;;;;;;5025400;28;20176;-64
2023/05/06 05:17:28;;;;;;;11.80;8.53;;;16.20;99.90;;;;;;5024375;28;20200;-64
2023/05/06 05:19:54;;;;;;;9.57;7.73;;;16.10;99.90;;;;;;5019910;28;20836;-64
2023/05/06 05:22:19;;;;;;;10.57;8.97;;;16.20;99.90;;;;;;5025272;28;20467;-64
2023/05/06 05:24:45;;;;;;;8.77;7.50;;;16.20;99.90;;;;;;5024045;28;20190;-64
2023/05/06 05:27:11;;;;;;;11.60;8.70;;;16.30;99.90;;;;;;5022876;28;20192;-64
2023/05/06 05:29:37;;;;;;;9.63;8.40;;;16.40;99.90;;;;;;5022238;28;20455;-65
2023/05/06 05:32:03;;;;;;;11.17;8.50;;;16.30;99.90;;;;;;5021450;28;21000;-65
2023/05/06 05:34:29;;;;;;;8.80;7.80;;;16.30;99.90;;;;;;5024898;28;20184;-64
2023/05/06 05:36:56;;;;;;;10.30;9.20;;;16.30;99.90;;;;;;5018084;28;20716;-65
2023/05/06 05:39:22;;;;;;;11.60;9.90;;;16.30;99.90;;;;;;5021362;28;20455;-64
2023/05/06 05:41:47;;;;;;;10.23;9.20;;;16.30;99.90;;;;;;5023424;28;20422;-65
2023/05/06 05:44:13;;;;;;;10.10;8.30;;;16.40;99.90;;;;;;5024839;28;20785;-64
2023/05/06 05:46:39;;;;;;;10.17;9.10;;;16.40;99.90;;;;;;5020843;28;20199;-66
2023/05/06 05:49:05;;;;;;;11.13;9.20;;;16.50;99.90;;;;;;5019205;28;20200;-65
2023/05/06 05:51:31;;;;;;;10.63;9.07;;;16.50;99.90;;;;;;5022063;28;20478;-65
2023/05/06 05:53:56;;;;;;;11.23;8.60;;;16.60;99.90;;;;;;5020798;28;20290;-65
2023/05/06 05:56:22;;;;;;;12.80;9.47;;;16.50;99.90;;;;;;5023957;28;20168;-65
2023/05/06 05:58:47;;;;;;;12.23;9.10;;;16.60;99.90;;;;;;5022663;28;20319;-65
2023/05/06 06:01:13;;;;;;;12.00;10.80;;;16.60;99.90;;;;;;5024717;28;20180;-65
2023/05/06 06:03:40;;;;;;;11.07;9.80;;;16.60;99.90;;;;;;5022239;28;20185;-65
2023/05/06 06:06:05;;;;;;;13.17;9.80;;;16.50;99.90;;;;;;5020679;28;20209;-65
2023/05/06 06:08:32;;;;;;;13.00;10.53;;;16.60;99.90;;;;;;5020332;28;20552;-65
2023/05/06 06:10:57;;;;;;;13.80;10.80;;;16.60;99.90;;;;;;5024096;28;20224;-65
2023/05/06 06:13:23;;;;;;;9.97;8.97;;;16.60;99.90;;;;;;5024433;28;20451;-65
2023/05/06 06:15:49;;;;;;;14.87;10.80;;;16.70;99.90;;;;;;5022334;28;20526;-66
2023/05/06 06:18:14;;;;;;;13.40;10.83;;;16.70;99.90;;;;;;5023204;28;20246;-64
2023/05/06 06:20:40;;;;;;;10.60;9.50;;;16.70;99.90;;;;;;5025252;28;20187;-64
2023/05/06 06:23:06;;;;;;;12.27;9.97;;;16.70;99.90;;;;;;5024130;28;20184;-64
2023/05/06 06:25:31;;;;;;;16.40;9.67;;;16.80;99.90;;;;;;5022911;28;20189;-64
2023/05/06 06:27:57;;;;;;;9.90;8.87;;;16.80;99.90;;;;;;5020232;28;20223;-64
2023/05/06 06:30:22;;;;;;;11.03;8.83;;;16.80;99.90;;;;;;5023766;28;20199;-64
2023/05/06 06:32:52;;;;;;;13.07;9.23;;;16.90;99.90;;;;;;5022461;28;20598;-64
2023/05/06 06:35:18;;;;;;;12.00;9.43;;;17.00;99.90;;;;;;5019159;28;20412;-65
2023/05/06 06:37:45;;;;;;;11.03;8.50;;;17.00;99.90;;;;;;5023062;28;20415;-64
2023/05/06 06:40:11;;;;;;;14.73;9.43;;;17.00;99.90;;;;;;5022512;28;20511;-64
2023/05/06 06:42:37;;;;;;;16.13;9.93;;;17.00;99.90;;;;;;5019993;28;20436;-64
2023/05/06 06:45:03;;;;;;;10.70;9.30;;;17.00;99.90;;;;;;5020147;28;21124;-64
2023/05/06 06:47:28;;;;;;;13.53;9.50;;;17.10;99.90;;;;;;5020923;28;20255;-65
2023/05/06 06:49:54;;;;;;;13.87;9.17;;;17.10;99.90;;;;;;5018731;28;20454;-64
2023/05/06 06:52:20;;;;;;;14.03;9.90;;;17.20;99.90;;;;;;5020476;28;20207;-64
2023/05/06 06:54:45;;;;;;;11.67;9.37;;;17.30;99.90;;;;;;5019470;28;20613;-64
2023/05/06 06:57:11;;;;;;;13.43;10.50;;;17.30;99.90;;;;;;5022577;28;20661;-64
2023/05/06 06:59:36;;;;;;;12.17;9.23;;;17.30;99.90;;;;;;5017383;28;20201;-64
2023/05/06 07:02:02;;;;;;;11.87;9.63;;;17.40;99.90;;;;;;5023010;28;20789;-65
2023/05/06 07:04:28;;;;;;;15.23;9.87;;;17.60;99.90;;;;;;5024862;28;20183;-65
2023/05/06 07:06:53;;;;;;;11.50;10.30;;;17.50;99.90;;;;;;5020923;28;21002;-65
2023/05/06 07:09:19;;;;;;;11.87;10.03;;;17.60;99.90;;;;;;5023911;28;20286;-65
2023/05/06 07:11:45;;;;;;;10.47;8.67;;;17.70;99.90;;;;;;5024709;28;20274;-65
2023/05/06 07:14:11;;;;;;;15.37;9.27;;;17.80;99.90;;;;;;5026613;28;20418;-65
2023/05/06 07:16:37;;;;;;;12.30;9.00;;;17.70;99.90;;;;;;5026475;28;20271;-65
2023/05/06 07:19:02;;;;;;;10.50;9.20;;;17.70;99.90;;;;;;5026140;28;20522;-65
2023/05/06 07:21:31;;;;;;;9.53;7.67;;;17.60;99.90;;;;;;5027912;28;20185;-65
2023/05/06 07:23:59;;;;;;;8.97;8.07;;;17.70;99.90;;;;;;5026645;28;20325;-65
2023/05/06 07:26:25;;;;;;;11.97;8.97;;;17.70;99.90;;;;;;5026449;28;20427;-64
2023/05/06 07:28:51;;;;;;;11.40;9.00;;;17.70;99.90;;;;;;5024784;28;21057;-65
2023/05/06 07:31:19;;;;;;;11.33;8.20;;;17.70;99.90;;;;;;5026548;28;20569;-65
2023/05/06 07:33:46;;;;;;;11.90;8.43;;;17.70;99.90;;;;;;5024896;28;20168;-65
2023/05/06 07:36:12;;;;;;;9.80;8.47;;;17.80;99.90;;;;;;5025033;28;20459;-65
2023/05/06 07:38:37;;;;;;;8.10;7.10;;;17.70;99.90;;;;;;5024751;28;20491;-65
2023/05/06 07:41:03;;;;;;;9.43;7.00;;;17.80;99.90;;;;;;5026318;28;20259;-65
2023/05/06 07:43:28;;;;;;;7.67;6.40;;;18.00;99.90;;;;;;5023977;28;20173;-65
2023/05/06 07:46:01;;;;;;;5.60;5.00;;;18.10;99.90;;;;;;5026617;28;20685;-65
2023/05/06 07:48:30;;;;;;;6.60;5.63;;;18.10;99.90;;;;;;5022242;28;20205;-65
2023/05/06 07:50:56;;;;;;;6.43;5.00;;;18.10;99.90;;;;;;5021167;28;20410;-65
2023/05/06 07:53:21;;;;;;;6.03;5.40;;;18.20;99.90;;;;;;5021891;28;20462;-65
2023/05/06 07:55:47;;;;;;;5.87;4.90;;;18.30;99.90;;;;;;5025540;28;21587;-64
2023/05/06 07:58:13;;;;;;;6.80;4.93;;;18.40;99.90;;;;;;5026110;28;20204;-65
2023/05/06 08:00:39;;;;;;;9.40;4.33;;;18.30;99.90;;;;;;5022099;28;20427;-65
2023/05/06 08:03:04;;;;;;;6.30;5.27;;;18.50;99.90;;;;;;5024494;28;20181;-65
2023/05/06 08:05:30;;;;;;;6.83;4.90;;;18.70;99.90;;;;;;5025450;28;20597;-65
2023/05/06 08:07:55;;;;;;;5.73;4.10;;;18.80;99.90;;;;;;5025726;28;20219;-65
2023/05/06 08:10:21;;;;;;;6.00;4.70;;;18.90;99.90;;;;;;5025987;28;20204;-65
2023/05/06 08:12:47;;;;;;;6.07;4.60;;;19.00;99.90;;;;;;5024565;28;20204;-65
2023/05/06 08:15:13;;;;;;;9.30;4.77;;;19.10;99.90;;;;;;5024759;28;20412;-65
2023/05/06 08:17:39;;;;;;;8.70;5.20;;;19.10;99.90;;;;;;5025139;28;20560;-65
2023/05/06 08:20:05;;;;;;;5.20;4.57;;;19.10;99.90;;;;;;5026031;28;20173;-65
2023/05/06 08:22:31;;;;;;;7.53;3.90;;;19.00;99.90;;;;;;5024249;28;20189;-65
2023/05/06 08:24:57;;;;;;;4.50;3.40;;;19.10;99.90;;;;;;5025860;28;20771;-65
2023/05/06 08:27:23;;;;;;;3.53;3.03;;;19.20;99.90;;;;;;5025966;28;20187;-65
2023/05/06 08:29:48;;;;;;;4.37;3.97;;;19.10;99.90;;;;;;5024071;28;20438;-65
2023/05/06 08:32:14;;;;;;;4.10;3.47;;;19.00;99.90;;;;;;5024246;28;20208;-65
2023/05/06 08:34:40;;;;;;;4.00;3.37;;;19.20;99.90;;;;;;5023942;28;20238;-65
2023/05/06 08:37:05;;;;;;;6.90;3.90;;;19.30;99.90;;;;;;5023363;28;20177;-65
2023/05/06 08:39:31;;;;;;;3.50;3.20;;;19.40;99.90;;;;;;5023986;28;20204;-65
2023/05/06 08:42:00;;;;;;;7.33;5.23;;;19.60;99.90;;;;;;5025575;28;20219;-65
2023/05/06 08:44:26;;;;;;;3.80;3.00;;;19.60;99.90;;;;;;5025034;28;20199;-65
2023/05/06 08:46:52;;;;;;;7.13;4.33;;;19.70;99.90;;;;;;5021618;28;20802;-65
2023/05/06 08:49:17;;;;;;;5.27;4.17;;;19.80;99.90;;;;;;5019729;28;20305;-65
2023/05/06 08:51:43;;;;;;;4.83;3.10;;;19.90;99.90;;;;;;5023572;28;20211;-64
2023/05/06 08:54:11;;;;;;;3.57;2.97;;;20.00;99.90;;;;;;5020645;28;20804;-64
2023/05/06 08:56:38;;;;;;;2.93;2.63;;;20.20;99.90;;;;;;5025167;28;20218;-65
2023/05/06 08:59:07;;;;;;;2.80;2.50;;;20.40;99.90;;;;;;5021839;28;20435;-65
2023/05/06 09:01:33;;;;;;;5.23;3.37;;;20.40;99.90;;;;;;5024879;28;20439;-65
2023/05/06 09:04:00;;;;;;;4.33;2.00;;;20.50;99.90;;;;;;5020599;28;20454;-65
2023/05/06 09:06:26;;;;;;;9.00;7.90;;;20.50;99.90;;;;;;5025232;28;20184;-65
2023/05/06 09:08:51;;;;;;;3.33;2.20;;;20.70;99.90;;;;;;5023504;28;20527;-65
2023/05/06 09:11:30;;;;;;;4.87;2.87;;;20.70;99.90;;;;;;5022897;28;20269;-65
2023/05/06 09:14:15;;;;;;;4.20;3.30;;;20.70;99.90;;;;;;5025131;28;20180;-65
2023/05/06 09:16:45;;;;;;;5.70;3.40;;;21.00;99.90;;;;;;5020945;28;20437;-65
2023/05/06 09:19:12;;;;;;;4.23;3.10;;;21.20;99.90;;;;;;5022408;28;20487;-65
2023/05/06 09:21:40;;;;;;;3.17;2.37;;;21.30;99.90;;;;;;5024030;28;20435;-64
2023/05/06 09:24:07;;;;;;;3.67;2.83;;;21.20;99.90;;;;;;5020830;28;20455;-65
2023/05/06 09:26:34;;;;;;;7.23;4.30;;;21.30;99.90;;;;;;5021521;28;20510;-65
2023/05/06 09:29:01;;;;;;;4.07;3.13;;;21.40;99.90;;;;;;5018789;28;20475;-65
2023/05/06 09:31:27;;;;;;;3.70;2.73;;;21.50;99.90;;;;;;5023942;28;20506;-64
2023/05/06 09:33:54;;;;;;;4.30;2.97;;;21.30;99.90;;;;;;5025064;28;20426;-65
2023/05/06 09:36:22;;;;;;;3.37;3.07;;;21.50;99.90;;;;;;5024848;28;20501;-65
2023/05/06 09:38:48;;;;;;;3.57;2.90;;;21.70;99.90;;;;;;5023239;28;20512;-65
2023/05/06 09:41:15;;;;;;;3.53;3.00;;;21.70;99.90;;;;;;5024676;28;20427;-65
2023/05/06 09:43:47;;;;;;;6.23;5.63;;;21.70;99.90;;;;;;5022448;28;20243;-65
2023/05/06 09:46:14;;;;;;;7.30;5.67;;;21.80;99.90;;;;;;5022221;28;20489;-65
2023/05/06 09:48:40;;;;;;;4.73;3.90;;;22.10;99.90;;;;;;5020972;28;20462;-65
2023/05/06 09:51:06;;;;;;;4.00;3.63;;;22.20;99.90;;;;;;5020164;28;20804;-65
2023/05/06 09:53:36;;;;;;;6.50;3.20;;;22.20;99.90;;;;;;5021361;28;20176;-65
2023/05/06 09:56:06;;;;;;;4.27;3.87;;;22.00;99.90;;;;;;5022234;28;20415;-65
2023/05/06 09:58:33;;;;;;;9.67;8.77;;;21.90;99.90;;;;;;5021518;28;20530;-65
2023/05/06 10:01:00;;;;;;;3.50;3.20;;;21.80;99.90;;;;;;5022795;28;20431;-65
2023/05/06 10:03:26;;;;;;;4.13;3.10;;;21.90;99.90;;;;;;5025283;28;20415;-65
2023/05/06 10:05:56;;;;;;;3.47;3.17;;;22.00;99.90;;;;;;5024619;28;20431;-65
2023/05/06 10:08:23;;;;;;;4.07;3.67;;;22.10;99.90;;;;;;5023315;28;20459;-65
2023/05/06 10:10:50;;;;;;;3.27;2.80;;;22.00;99.90;;;;;;5023587;28;20636;-65
2023/05/06 10:13:16;;;;;;;5.27;3.50;;;22.00;99.90;;;;;;5022890;28;20927;-64
2023/05/06 10:15:46;;;;;;;3.33;2.87;;;22.00;99.90;;;;;;5018722;28;21159;-64
2023/05/06 10:18:15;;;;;;;4.47;4.03;;;22.10;99.90;;;;;;5019931;28;20598;-65
2023/05/06 10:20:41;;;;;;;5.93;5.03;;;22.00;99.90;;;;;;5022868;28;20430;-65
2023/05/06 10:23:22;;;;;;;4.03;3.30;;;22.10;99.90;;;;;;5019733;28;20465;-65
2023/05/06 10:25:52;;;;;;;5.07;3.37;;;22.10;99.90;;;;;;5018618;28;20439;-65
2023/05/06 10:28:20;;;;;;;4.90;2.70;;;22.10;99.90;;;;;;5022918;28;20450;-65
2023/05/06 10:30:47;;;;;;;7.23;3.73;;;21.90;99.90;;;;;;5022517;28;20514;-65
2023/05/06 10:33:15;;;;;;;4.27;3.33;;;21.80;99.90;;;;;;5023095;28;20862;-64
2023/05/06 10:35:43;;;;;;;6.00;4.33;;;21.90;99.90;;;;;;5020187;28;20442;-64
2023/05/06 10:38:31;;;;;;;3.97;2.53;;;21.90;99.90;;;;;;5026869;28;20439;-65
2023/05/06 10:40:59;;;;;;;3.30;3.00;;;21.90;99.90;;;;;;5025701;28;20939;-65
2023/05/06 10:43:33;;;;;;;5.77;4.27;;;21.90;99.90;;;;;;5025697;28;20431;-64
2023/05/06 10:46:07;;;;;;;5.47;3.60;;;22.00;99.90;;;;;;5021791;28;20427;-65
2023/05/06 10:48:34;;;;;;;3.57;2.70;;;22.10;99.90;;;;;;5024146;28;20458;-64
2023/05/06 10:51:18;;;;;;;3.30;2.70;;;22.20;99.90;;;;;;5027714;28;20987;-64
2023/05/06 10:54:06;;;;;;;3.67;2.80;;;22.20;99.90;;;;;;5023001;28;20462;-64
2023/05/06 10:56:37;;;;;;;3.63;3.13;;;22.20;99.90;;;;;;5024032;28;20419;-66
2023/05/06 10:59:10;;;;;;;3.63;3.10;;;22.20;99.90;;;;;;5023747;28;20427;-65
2023/05/06 11:01:43;;;;;;;4.00;3.00;;;22.30;99.90;;;;;;5025191;28;20514;-65
2023/05/06 11:04:11;;;;;;;4.83;4.43;;;22.40;99.90;;;;;;5025658;28;20426;-64
2023/05/06 11:06:44;;;;;;;5.30;3.07;;;22.60;99.90;;;;;;5027024;28;20761;-65
2023/05/06 11:09:21;;;;;;;3.60;2.87;;;22.60;99.90;;;;;;5019941;28;20451;-65
2023/05/06 11:12:01;;;;;;;3.73;3.00;;;22.70;99.90;;;;;;5025281;28;20553;-65
2023/05/06 11:14:37;;;;;;;3.40;3.10;;;22.70;99.90;;;;;;5026211;28;20468;-65
2023/05/06 11:17:03;;;;;;;5.73;3.10;;;22.70;99.90;;;;;;5021398;28;20430;-65
2023/05/06 11:19:36;;;;;;;5.37;3.20;;;22.80;99.90;;;;;;5025167;28;20453;-65
2023/05/06 11:22:03;;;;;;;3.77;3.10;;;23.00;99.90;;;;;;5023913;28;20411;-65
2023/05/06 11:24:31;;;;;;;2.83;2.63;;;23.00;99.90;;;;;;5020689;28;20427;-65
2023/05/06 11:26:58;;;;;;;3.30;3.00;;;23.20;99.90;;;;;;5022668;28;20992;-65
2023/05/06 11:29:25;;;;;;;3.00;2.57;;;23.30;99.90;;;;;;5023534;28;20840;-65
2023/05/06 11:31:54;;;;;;;2.77;2.53;;;23.50;99.90;;;;;;5025629;28;20491;-65
2023/05/06 11:34:22;;;;;;;4.30;3.00;;;23.60;99.90;;;;;;5014376;28;20440;-64
2023/05/06 11:36:59;;;;;;;3.30;2.73;;;23.70;99.90;;;;;;5019069;28;20403;-64
2023/05/06 11:39:31;;;;;;;3.60;2.90;;;23.90;99.90;;;;;;5020035;28;20824;-66
2023/05/06 11:41:58;;;;;;;2.77;2.47;;;24.20;99.90;;;;;;5019113;28;20987;-64
2023/05/06 11:44:30;;;;;;;3.40;2.70;;;24.40;99.90;;;;;;5019051;28;20419;-64
2023/05/06 11:47:01;;;;;;;2.70;2.50;;;24.60;99.90;;;;;;5021936;28;20415;-65
2023/05/06 11:49:27;;;;;;;5.13;3.40;;;25.00;99.90;;;;;;5024303;28;20513;-64
2023/05/06 11:51:54;;;;;;;3.67;2.90;;;25.40;99.90;;;;;;5025963;28;20462;-65
2023/05/06 11:54:21;;;;;;;6.00;3.40;;;25.80;99.90;;;;;;5024456;28;20936;-65
2023/05/06 11:56:51;;;;;;;4.50;3.07;;;26.30;99.90;;;;;;5027364;28;20415;-65
2023/05/06 11:59:24;;;;;;;3.80;2.83;;;26.80;99.90;;;;;;5024539;28;20427;-65
2023/05/06 12:01:50;;;;;;;3.53;2.80;;;27.40;98.30;;;;;;5025288;28;20423;-65
2023/05/06 12:04:15;;;;;;;3.17;2.87;;;28.50;97.10;;;;;;5020394;28;20446;-64
2023/05/06 12:06:41;;;;;;;5.13;2.97;;;29.20;93.00;;;;;;5024406;28;20185;-65
2023/05/06 12:09:10;;;;;;;3.40;3.10;;;30.20;90.20;;;;;;5024509;28;20196;-65
2023/05/06 12:11:37;;;;;;;3.27;2.80;;;30.40;81.70;;;;;;5020783;28;20216;-65
2023/05/06 12:14:05;;;;;;;4.73;2.90;;;29.60;82.00;;;;;;5025395;28;21056;-65
2023/05/06 12:16:32;;;;;;;3.50;2.80;;;29.70;82.70;;;;;;5022319;28;20446;-66
2023/05/06 12:18:58;;;;;;;2.90;2.67;;;31.00;80.40;;;;;;5026509;28;20498;-66
2023/05/06 12:21:24;;;;;;;2.97;2.60;;;32.40;76.00;;;;;;5023261;28;20888;-66
2023/05/06 12:23:56;;;;;;;3.13;2.73;;;33.50;71.30;;;;;;5025602;28;21237;-66
2023/05/06 12:26:21;;;;;;;2.30;2.10;;;34.50;66.60;;;;;;5027526;28;20924;-66
2023/05/06 12:29:06;;;;;;;2.90;2.30;;;35.20;61.70;;;;;;5021044;28;20430;-66
2023/05/06 12:31:33;;;;;;;3.30;2.93;;;35.70;57.80;;;;;;5023365;28;20208;-66
2023/05/06 12:33:58;;;;;;;3.70;2.70;;;36.20;55.30;;;;;;5020844;28;20387;-66
2023/05/06 12:36:24;;;;;;;4.10;3.20;;;36.80;53.20;;;;;;5024104;28;20807;-67
2023/05/06 12:38:55;;;;;;;3.37;2.90;;;37.20;50.20;;;;;;5024768;28;20307;-67
2023/05/06 12:41:21;;;;;;;2.50;2.30;;;36.70;48.30;;;;;;5023223;28;20200;-66
2023/05/06 12:43:47;;;;;;;2.43;2.23;;;37.50;47.00;;;;;;5029702;28;20412;-66